Time;durP1;ratioP1;P1;durP2;ratioP2;P2;SDS_P1;SDS_P2;PMS_P1;PMS_P2;Temp;Humidity;BMP_temperature;BMP_pressure;BME280_temperature;BME280_humidity;BME280_pressure;Samples;Min_cycle;Max_cycle;Signal;HPM_P1;HPM_P2
2023/12/05 00:01:06;;;;;;;31.55;17.90;;;5.80;99.90;;;;;;5013623;28;20515;-82
2023/12/05 00:03:34;;;;;;;41.60;18.75;;;5.80;99.90;;;;;;4979679;28;20034;-81
2023/12/05 00:06:00;;;;;;;42.13;18.20;;;5.70;99.90;;;;;;4965854;28;20062;-81
2023/12/05 00:08:26;;;;;;;33.15;17.88;;;5.70;99.90;;;;;;4993807;28;20026;-81
2023/12/05 00:10:53;;;;;;;29.50;18.45;;;5.60;99.90;;;;;;4976474;28;20072;-81
2023/12/05 00:13:19;;;;;;;34.70;18.42;;;5.60;99.90;;;;;;4993615;28;20038;-81
2023/12/05 00:15:45;;;;;;;35.75;18.15;;;5.60;99.90;;;;;;4976346;28;20032;-81
2023/12/05 00:18:11;;;;;;;43.60;21.48;;;5.60;99.90;;;;;;4976342;28;20030;-82
2023/12/05 00:20:37;;;;;;;44.50;23.52;;;5.60;99.90;;;;;;4976246;28;20509;-81
2023/12/05 00:23:04;;;;;;;42.85;22.42;;;5.60;99.90;;;;;;4960159;28;20038;-81
2023/12/05 00:25:30;;;;;;;44.70;21.13;;;5.70;99.90;;;;;;4985640;28;20057;-81
2023/12/05 00:27:56;;;;;;;40.15;22.73;;;5.80;99.90;;;;;;4979468;28;20095;-81
2023/12/05 00:30:23;;;;;;;56.47;25.08;;;5.80;99.90;;;;;;4979446;28;20029;-81
2023/12/05 00:32:49;;;;;;;46.30;22.17;;;5.90;99.90;;;;;;4995566;28;20045;-82
2023/12/05 00:35:18;;;;;;;55.92;24.08;;;5.90;99.90;;;;;;4987773;28;20023;-81
2023/12/05 00:37:44;;;;;;;51.20;23.10;;;5.80;99.90;;;;;;4976084;28;20041;-81
2023/12/05 00:40:11;;;;;;;44.72;24.00;;;5.80;99.90;;;;;;4960104;28;20027;-81
2023/12/05 00:42:38;;;;;;;45.78;24.60;;;5.80;99.90;;;;;;4960145;28;20527;-81
2023/12/05 00:45:04;;;;;;;45.92;23.90;;;5.90;99.90;;;;;;4981759;28;20050;-81
2023/12/05 00:47:31;;;;;;;43.70;23.25;;;5.90;99.90;;;;;;5013047;28;20101;-81
2023/12/05 00:49:57;;;;;;;45.85;25.13;;;5.90;99.90;;;;;;4995358;28;20049;-81
2023/12/05 00:52:23;;;;;;;46.90;22.98;;;5.90;99.90;;;;;;5013013;28;20042;-81
2023/12/05 00:54:49;;;;;;;51.67;24.23;;;5.90;99.90;;;;;;4991556;28;20022;-81
2023/12/05 00:57:15;;;;;;;52.13;25.27;;;5.90;99.90;;;;;;4980431;28;20121;-81
2023/12/05 00:59:41;;;;;;;43.35;23.50;;;5.90;99.90;;;;;;5011757;28;20069;-82
2023/12/05 01:02:09;;;;;;;51.70;24.20;;;5.90;99.90;;;;;;4995415;28;20030;-81
2023/12/05 01:04:36;;;;;;;47.97;23.63;;;6.00;99.90;;;;;;5010549;28;20391;-81
2023/12/05 01:07:04;;;;;;;48.90;22.88;;;5.90;99.90;;;;;;4979657;28;20023;-82
2023/12/05 01:09:31;;;;;;;44.92;23.50;;;5.90;99.90;;;;;;4979637;28;20120;-81
2023/12/05 01:11:57;;;;;;;45.40;24.05;;;5.80;99.90;;;;;;4995696;28;20037;-81
2023/12/05 01:14:23;;;;;;;46.05;24.02;;;5.70;99.90;;;;;;4995659;28;20483;-80
2023/12/05 01:16:49;;;;;;;48.97;25.08;;;5.70;99.90;;;;;;4997063;28;20388;-82
2023/12/05 01:19:15;;;;;;;48.25;24.55;;;5.70;99.90;;;;;;4996069;28;20538;-83
2023/12/05 01:21:42;;;;;;;45.53;24.65;;;5.70;99.90;;;;;;4996534;28;20518;-83
2023/12/05 01:24:08;;;;;;;44.00;24.13;;;5.70;99.90;;;;;;4996233;28;20031;-85
2023/12/05 01:26:34;;;;;;;48.55;26.45;;;5.70;99.90;;;;;;4998362;28;20027;-83
2023/12/05 01:29:02;;;;;;;50.08;25.63;;;5.70;99.90;;;;;;4980003;28;20072;-85
2023/12/05 01:31:29;;;;;;;44.15;23.92;;;5.80;99.90;;;;;;4996268;28;20033;-85
2023/12/05 01:33:55;;;;;;;50.97;23.42;;;5.80;99.90;;;;;;4995745;28;20486;-83
2023/12/05 01:36:22;;;;;;;39.75;24.77;;;5.90;99.90;;;;;;5010944;28;20034;-84
2023/12/05 01:38:59;;;;;;;47.15;24.48;;;5.90;99.90;;;;;;4998264;28;20026;-82
2023/12/05 01:41:25;;;;;;;46.03;24.35;;;6.00;99.90;;;;;;5014836;28;20030;-83
2023/12/05 01:43:52;;;;;;;50.05;23.60;;;6.00;99.90;;;;;;4998510;28;20112;-82
2023/12/05 01:46:20;;;;;;;43.35;23.77;;;6.10;99.90;;;;;;4995172;28;20498;-83
2023/12/05 01:48:47;;;;;;;47.13;23.50;;;6.20;99.90;;;;;;4979017;28;20034;-83
2023/12/05 01:51:15;;;;;;;43.10;22.33;;;6.20;99.90;;;;;;4979016;28;20033;-85
2023/12/05 01:53:43;;;;;;;43.85;23.33;;;6.20;99.90;;;;;;4979054;28;20038;-84
2023/12/05 01:56:11;;;;;;;46.92;21.98;;;6.20;99.90;;;;;;4981244;28;20034;-85
2023/12/05 01:58:38;;;;;;;43.90;23.23;;;6.20;99.90;;;;;;4983133;28;20046;-84
2023/12/05 02:01:05;;;;;;;43.08;23.02;;;6.20;99.90;;;;;;4962880;28;20093;-84
2023/12/05 02:03:32;;;;;;;44.80;22.77;;;6.20;99.90;;;;;;4963449;28;20022;-86
2023/12/05 02:05:59;;;;;;;47.00;22.55;;;6.20;99.90;;;;;;4963639;28;20065;-86
2023/12/05 02:08:28;;;;;;;47.35;22.38;;;6.30;99.90;;;;;;4963294;28;20023;-86
2023/12/05 02:10:54;;;;;;;38.97;21.00;;;6.30;99.90;;;;;;4963591;28;20034;-86
2023/12/05 02:13:21;;;;;;;37.85;20.83;;;6.40;99.90;;;;;;4963270;28;20130;-85
2023/12/05 02:16:00;;;;;;;42.55;20.98;;;6.40;99.90;;;;;;4973201;28;20056;-87
2023/12/05 02:18:33;;;;;;;41.35;21.95;;;6.40;99.90;;;;;;4982577;28;20486;-86
2023/12/05 02:21:25;;;;;;;37.70;20.90;;;6.40;99.90;;;;;;4982482;28;20034;-86
2023/12/05 02:24:13;;;;;;;45.53;21.50;;;6.40;99.90;;;;;;4982548;28;20072;-86
2023/12/05 02:26:52;;;;;;;42.45;22.02;;;6.40;99.90;;;;;;4982548;28;20032;-86
2023/12/05 02:29:19;;;;;;;36.60;20.58;;;6.40;99.90;;;;;;4982627;28;20491;-86
2023/12/05 02:31:45;;;;;;;44.95;22.83;;;6.40;99.90;;;;;;4982280;28;20041;-86
2023/12/05 02:34:12;;;;;;;43.33;22.35;;;6.30;99.90;;;;;;4982199;28;20084;-86
2023/12/05 02:36:55;;;;;;;42.03;21.92;;;6.30;99.90;;;;;;4982447;28;20052;-85
2023/12/05 02:39:51;;;;;;;40.95;23.08;;;6.30;99.90;;;;;;4982294;28;20368;-85
2023/12/05 02:42:22;;;;;;;41.92;23.13;;;6.30;99.90;;;;;;4982220;28;20029;-85
2023/12/05 02:44:52;;;;;;;44.13;22.48;;;6.30;99.90;;;;;;4982216;28;20030;-85
2023/12/05 02:47:20;;;;;;;44.22;22.88;;;6.30;99.90;;;;;;4982265;28;20080;-86
2023/12/05 02:49:47;;;;;;;49.28;24.73;;;6.30;99.90;;;;;;4982042;28;20038;-85
2023/12/05 02:52:20;;;;;;;43.93;24.90;;;6.30;99.90;;;;;;4982912;28;20122;-85
2023/12/05 02:54:46;;;;;;;45.72;25.55;;;6.30;99.90;;;;;;4980241;28;20092;-86
2023/12/05 02:57:13;;;;;;;51.30;26.55;;;6.30;99.90;;;;;;4982018;28;20033;-86
2023/12/05 02:59:39;;;;;;;45.20;25.27;;;6.30;99.90;;;;;;4998103;28;20030;-86
2023/12/05 03:02:06;;;;;;;46.67;25.63;;;6.30;99.90;;;;;;4997989;28;20034;-86
2023/12/05 03:04:32;;;;;;;55.95;27.70;;;6.30;99.90;;;;;;4997967;28;20083;-86
2023/12/05 03:06:59;;;;;;;60.88;29.55;;;6.20;99.90;;;;;;4997930;28;20037;-85
2023/12/05 03:09:25;;;;;;;55.60;29.10;;;6.20;99.90;;;;;;5014242;28;20021;-86
2023/12/05 03:11:52;;;;;;;58.85;27.92;;;6.20;99.90;;;;;;4997790;28;20030;-85
2023/12/05 03:14:18;;;;;;;55.85;26.48;;;6.20;99.90;;;;;;5014057;28;20484;-86
2023/12/05 03:16:44;;;;;;;53.65;26.75;;;6.20;99.90;;;;;;5011421;28;20038;-86
2023/12/05 03:19:10;;;;;;;51.05;26.00;;;6.30;99.90;;;;;;4981582;28;20129;-86
2023/12/05 03:21:37;;;;;;;45.97;26.30;;;6.30;99.90;;;;;;4981499;28;20501;-86
2023/12/05 03:24:04;;;;;;;47.65;25.50;;;6.30;99.90;;;;;;4981434;28;20040;-86
2023/12/05 03:26:30;;;;;;;47.65;25.55;;;6.20;99.90;;;;;;4981358;28;20072;-85
2023/12/05 03:28:56;;;;;;;51.28;26.50;;;6.20;99.90;;;;;;4984649;28;20048;-85
2023/12/05 03:31:22;;;;;;;50.72;26.35;;;6.20;99.90;;;;;;5000733;28;20032;-85
2023/12/05 03:33:52;;;;;;;47.83;24.85;;;6.20;99.90;;;;;;5000733;28;20044;-86
2023/12/05 03:36:18;;;;;;;43.97;25.45;;;6.20;99.90;;;;;;5000727;28;20021;-85
2023/12/05 03:38:44;;;;;;;49.20;24.92;;;6.20;99.90;;;;;;5017279;28;20048;-86
2023/12/05 03:41:11;;;;;;;45.08;25.13;;;6.20;99.90;;;;;;5000668;28;20112;-86
2023/12/05 03:43:37;;;;;;;44.47;24.98;;;6.20;99.90;;;;;;5000252;28;20455;-86
2023/12/05 03:46:03;;;;;;;47.83;25.08;;;6.20;99.90;;;;;;4996837;28;20022;-85
2023/12/05 03:48:30;;;;;;;44.38;23.92;;;6.30;99.90;;;;;;4980956;28;20396;-85
2023/12/05 03:50:56;;;;;;;46.05;23.73;;;6.30;99.90;;;;;;4990902;28;20022;-85
2023/12/05 03:53:22;;;;;;;46.63;24.38;;;6.30;99.90;;;;;;5000364;28;20041;-86
2023/12/05 03:55:49;;;;;;;44.97;24.83;;;6.30;99.90;;;;;;4991285;28;20113;-86
2023/12/05 03:58:16;;;;;;;39.55;23.58;;;6.30;99.90;;;;;;4977543;28;20105;-86
2023/12/05 04:00:43;;;;;;;44.22;25.85;;;6.30;99.90;;;;;;4977606;28;20165;-86
2023/12/05 04:03:09;;;;;;;41.15;24.23;;;6.40;99.90;;;;;;4993794;28;20110;-85
2023/12/05 04:05:36;;;;;;;43.90;23.95;;;6.40;99.90;;;;;;4977377;28;20018;-86
2023/12/05 04:08:02;;;;;;;45.38;24.30;;;6.40;99.90;;;;;;4993625;28;20488;-85
2023/12/05 04:10:28;;;;;;;41.40;23.67;;;6.40;99.90;;;;;;4977365;28;20059;-86
2023/12/05 04:12:55;;;;;;;41.35;23.17;;;6.40;99.90;;;;;;4993792;28;20038;-86
2023/12/05 04:15:21;;;;;;;43.25;23.63;;;6.50;99.90;;;;;;4977392;28;20077;-86
2023/12/05 04:17:48;;;;;;;45.70;22.33;;;6.50;99.90;;;;;;4977489;28;20034;-86
2023/12/05 04:20:14;;;;;;;43.10;22.17;;;6.50;99.90;;;;;;4977073;28;20053;-85
2023/12/05 04:22:41;;;;;;;38.05;21.85;;;6.50;99.90;;;;;;4977155;28;20061;-85
2023/12/05 04:25:08;;;;;;;36.35;21.98;;;6.50;99.90;;;;;;4980138;28;20028;-85
2023/12/05 04:27:34;;;;;;;41.80;21.60;;;6.50;99.90;;;;;;4980609;28;20041;-87
2023/12/05 04:30:01;;;;;;;36.85;21.25;;;6.60;99.90;;;;;;4980586;28;20022;-86
2023/12/05 04:32:27;;;;;;;42.55;21.30;;;6.60;99.90;;;;;;4980501;28;20030;-87
2023/12/05 04:34:53;;;;;;;39.42;21.88;;;6.60;99.90;;;;;;4979375;28;20053;-86
2023/12/05 04:37:20;;;;;;;39.80;21.55;;;6.60;99.90;;;;;;4977286;28;20026;-86
2023/12/05 04:39:46;;;;;;;39.67;20.27;;;6.60;99.90;;;;;;4978323;28;20026;-86
2023/12/05 04:42:12;;;;;;;39.20;22.05;;;6.60;99.90;;;;;;4981240;28;20055;-86
2023/12/05 04:44:39;;;;;;;34.35;20.38;;;6.60;99.90;;;;;;4981152;28;20424;-86
2023/12/05 04:47:09;;;;;;;39.28;20.55;;;6.60;99.90;;;;;;4981233;28;20030;-86
2023/12/05 04:49:36;;;;;;;36.63;19.83;;;6.70;99.90;;;;;;4981000;28;20035;-85
2023/12/05 04:52:02;;;;;;;38.75;20.73;;;6.70;99.90;;;;;;4997054;28;20030;-85
2023/12/05 04:54:28;;;;;;;33.42;19.00;;;6.70;99.90;;;;;;4980596;28;20037;-86
2023/12/05 04:56:55;;;;;;;44.53;20.55;;;6.70;99.90;;;;;;4980357;28;20160;-83
2023/12/05 04:59:21;;;;;;;34.47;21.02;;;6.70;99.90;;;;;;4980740;28;20034;-86
2023/12/05 05:01:47;;;;;;;41.00;22.00;;;6.70;99.90;;;;;;4980854;28;20027;-86
2023/12/05 05:04:14;;;;;;;33.75;21.02;;;6.60;99.90;;;;;;4980882;28;20041;-84
2023/12/05 05:06:40;;;;;;;35.78;21.25;;;6.70;99.90;;;;;;4980578;28;20026;-86
2023/12/05 05:09:07;;;;;;;37.47;20.13;;;6.70;99.90;;;;;;4980604;28;20403;-87
2023/12/05 05:11:33;;;;;;;36.03;21.35;;;6.70;99.90;;;;;;4980847;28;20081;-85
2023/12/05 05:13:59;;;;;;;32.47;20.38;;;6.70;99.90;;;;;;4980465;28;20042;-85
2023/12/05 05:16:26;;;;;;;34.47;20.30;;;6.60;99.90;;;;;;4992679;28;20021;-84
2023/12/05 05:18:53;;;;;;;34.00;20.48;;;6.60;99.90;;;;;;4999709;28;20064;-85
2023/12/05 05:21:20;;;;;;;36.17;19.48;;;6.70;99.90;;;;;;4982847;28;20021;-83
2023/12/05 05:23:46;;;;;;;33.90;20.00;;;6.60;99.90;;;;;;4966964;28;20030;-83
2023/12/05 05:26:14;;;;;;;30.35;18.80;;;6.60;99.90;;;;;;4998676;28;20026;-82
2023/12/05 05:28:40;;;;;;;33.05;19.25;;;6.60;99.90;;;;;;4982874;28;20034;-84
2023/12/05 05:31:06;;;;;;;36.50;19.98;;;6.70;99.90;;;;;;4982384;28;20034;-85
2023/12/05 05:33:36;;;;;;;34.40;21.05;;;6.70;99.90;;;;;;4983363;28;20088;-93
2023/12/05 05:36:03;;;;;;;37.33;20.85;;;6.80;99.90;;;;;;4983374;28;20109;-87
2023/12/05 05:38:29;;;;;;;33.28;19.77;;;6.80;99.90;;;;;;4983094;28;20030;-85
2023/12/05 05:41:06;;;;;;;37.35;20.25;;;6.80;99.90;;;;;;5016741;28;20032;-86
2023/12/05 05:43:34;;;;;;;35.50;18.67;;;6.80;99.90;;;;;;4983363;28;20464;-86
2023/12/05 05:46:00;;;;;;;34.50;19.70;;;6.90;99.90;;;;;;4983172;28;20022;-85
2023/12/05 05:48:27;;;;;;;36.85;19.92;;;6.90;99.90;;;;;;4982904;28;20044;-84
2023/12/05 05:50:53;;;;;;;43.72;21.58;;;6.80;99.90;;;;;;4982490;28;20033;-85
2023/12/05 05:53:19;;;;;;;37.85;20.40;;;6.90;99.90;;;;;;4982998;28;20038;-86
2023/12/05 05:55:45;;;;;;;36.15;20.20;;;6.90;99.90;;;;;;4982830;28;20031;-85
2023/12/05 05:58:12;;;;;;;31.50;18.70;;;6.90;99.90;;;;;;4982667;28;20054;-84
2023/12/05 06:00:38;;;;;;;33.75;19.10;;;6.90;99.90;;;;;;4983063;28;20498;-85
2023/12/05 06:03:05;;;;;;;38.20;19.13;;;7.00;99.90;;;;;;4983011;28;20045;-86
2023/12/05 06:05:31;;;;;;;33.70;19.58;;;7.00;99.90;;;;;;4979579;28;20431;-86
2023/12/05 06:07:58;;;;;;;33.70;19.55;;;7.00;99.90;;;;;;4979703;28;20034;-85
2023/12/05 06:10:24;;;;;;;33.53;18.67;;;7.00;99.90;;;;;;4963569;28;20033;-86
2023/12/05 06:12:50;;;;;;;32.08;18.90;;;7.00;99.90;;;;;;4979285;28;20038;-86
2023/12/05 06:15:17;;;;;;;31.58;17.67;;;7.10;99.90;;;;;;4979264;28;20042;-86
2023/12/05 06:17:43;;;;;;;33.05;19.55;;;7.20;99.90;;;;;;4979563;28;20026;-86
2023/12/05 06:20:10;;;;;;;31.65;18.80;;;7.20;99.90;;;;;;4979446;28;20080;-86
2023/12/05 06:22:36;;;;;;;30.67;17.50;;;7.20;99.90;;;;;;4979451;28;20089;-86
2023/12/05 06:25:03;;;;;;;32.85;17.75;;;7.20;99.90;;;;;;4979183;28;20085;-86
2023/12/05 06:27:29;;;;;;;31.23;18.83;;;7.20;99.90;;;;;;4979193;28;20038;-86
2023/12/05 06:29:56;;;;;;;33.97;18.02;;;7.30;99.90;;;;;;4979233;28;20496;-86
2023/12/05 06:32:22;;;;;;;25.40;17.05;;;7.30;99.90;;;;;;4979090;28;20038;-86
2023/12/05 06:34:48;;;;;;;30.90;17.45;;;7.40;99.90;;;;;;4979158;28;20080;-86
2023/12/05 06:37:15;;;;;;;24.70;17.27;;;7.40;99.90;;;;;;4978767;28;20038;-86
2023/12/05 06:39:41;;;;;;;24.27;15.30;;;7.40;99.90;;;;;;4978927;28;20032;-86
2023/12/05 06:42:07;;;;;;;33.88;16.80;;;7.50;99.90;;;;;;4978974;28;20038;-86
2023/12/05 06:44:34;;;;;;;27.00;16.45;;;7.50;99.90;;;;;;4962762;28;20105;-87
2023/12/05 06:47:00;;;;;;;24.20;15.63;;;7.60;99.90;;;;;;4978954;28;20030;-86
2023/12/05 06:49:26;;;;;;;26.55;15.23;;;7.60;99.90;;;;;;4979023;28;20047;-86
2023/12/05 06:51:57;;;;;;;27.70;15.50;;;7.70;99.90;;;;;;4978787;28;20034;-86
2023/12/05 06:54:23;;;;;;;23.92;14.88;;;7.70;99.90;;;;;;4978708;28;20037;-86
2023/12/05 06:56:49;;;;;;;23.15;13.93;;;7.80;99.90;;;;;;4992872;28;20120;-86
2023/12/05 06:59:16;;;;;;;23.58;14.25;;;7.90;99.90;;;;;;4981985;28;20053;-87
2023/12/05 07:01:42;;;;;;;34.70;15.45;;;8.00;99.90;;;;;;4981609;28;20030;-86
2023/12/05 07:04:08;;;;;;;25.02;14.43;;;8.10;99.90;;;;;;4981266;28;20030;-87
2023/12/05 07:06:35;;;;;;;27.55;13.90;;;8.10;99.90;;;;;;4981831;28;20418;-86
2023/12/05 07:09:04;;;;;;;32.20;15.18;;;8.20;99.90;;;;;;4981767;28;20120;-86
2023/12/05 07:11:31;;;;;;;25.60;14.13;;;8.20;99.90;;;;;;4997847;28;20575;-87
2023/12/05 07:13:57;;;;;;;29.33;14.13;;;8.30;99.90;;;;;;4981670;28;20156;-87
2023/12/05 07:16:24;;;;;;;25.83;13.32;;;8.30;99.90;;;;;;4997710;28;20022;-87
2023/12/05 07:18:51;;;;;;;24.35;13.95;;;8.30;99.90;;;;;;4981534;28;20117;-86
2023/12/05 07:21:17;;;;;;;24.85;15.13;;;8.30;99.90;;;;;;4981652;28;20054;-87
2023/12/05 07:23:43;;;;;;;24.48;14.45;;;8.30;99.90;;;;;;4981555;28;20072;-86
2023/12/05 07:26:09;;;;;;;26.67;15.18;;;8.40;99.90;;;;;;4984378;28;20018;-87
2023/12/05 07:28:36;;;;;;;28.80;16.40;;;8.40;99.90;;;;;;4981324;28;20057;-86
2023/12/05 07:31:02;;;;;;;30.25;16.95;;;8.50;99.90;;;;;;4981241;28;20479;-86
2023/12/05 07:33:28;;;;;;;27.63;16.42;;;8.40;99.90;;;;;;4997303;28;20169;-86
2023/12/05 07:35:57;;;;;;;33.00;16.02;;;8.50;99.90;;;;;;4981326;28;20026;-87
2023/12/05 07:38:24;;;;;;;29.27;16.73;;;8.50;99.90;;;;;;4997322;28;20053;-86
2023/12/05 07:40:50;;;;;;;30.55;16.67;;;8.60;99.90;;;;;;4981069;28;20049;-86
2023/12/05 07:43:17;;;;;;;23.20;15.77;;;8.60;99.90;;;;;;4981347;28;20026;-87
2023/12/05 07:45:43;;;;;;;25.80;15.18;;;8.60;99.90;;;;;;4980929;28;20054;-86
2023/12/05 07:48:09;;;;;;;25.67;15.57;;;8.60;99.90;;;;;;4981210;28;20041;-85
2023/12/05 07:50:36;;;;;;;25.88;15.50;;;8.60;99.90;;;;;;4980974;28;20033;-86
2023/12/05 07:53:02;;;;;;;25.05;14.50;;;8.70;99.90;;;;;;4981061;28;20041;-86
2023/12/05 07:55:29;;;;;;;25.55;15.45;;;8.60;99.90;;;;;;4980883;28;20070;-86
2023/12/05 07:57:56;;;;;;;28.40;16.05;;;8.70;99.90;;;;;;4986558;28;20056;-87
2023/12/05 08:00:22;;;;;;;28.98;15.45;;;8.80;99.90;;;;;;4997083;28;20036;-86
2023/12/05 08:02:48;;;;;;;24.58;15.70;;;9.00;99.90;;;;;;4996906;28;20056;-86
2023/12/05 08:05:14;;;;;;;28.13;17.40;;;9.10;99.90;;;;;;4996937;28;20025;-86
2023/12/05 08:07:41;;;;;;;26.90;14.82;;;9.30;99.90;;;;;;4996991;28;20487;-86
2023/12/05 08:10:09;;;;;;;20.98;12.45;;;9.50;99.90;;;;;;4996808;28;20030;-86
2023/12/05 08:12:36;;;;;;;20.30;12.00;;;9.70;99.90;;;;;;4996908;28;20033;-86
2023/12/05 08:15:04;;;;;;;16.75;11.07;;;9.90;99.90;;;;;;4996582;28;20038;-86
2023/12/05 08:17:30;;;;;;;17.40;12.55;;;10.10;99.90;;;;;;4996906;28;20479;-86
2023/12/05 08:19:57;;;;;;;16.38;12.23;;;10.20;99.90;;;;;;4996619;28;20030;-86
2023/12/05 08:22:25;;;;;;;19.60;12.90;;;10.30;99.90;;;;;;4996552;28;20038;-86
2023/12/05 08:24:51;;;;;;;18.92;12.52;;;10.40;99.90;;;;;;4996538;28;20030;-86
2023/12/05 08:27:18;;;;;;;17.58;12.48;;;10.50;99.90;;;;;;4996632;28;20053;-87
2023/12/05 08:29:44;;;;;;;15.73;11.60;;;10.60;99.90;;;;;;4996722;28;20064;-86
2023/12/05 08:32:11;;;;;;;16.27;11.38;;;10.80;99.90;;;;;;4996466;28;20045;-86
2023/12/05 08:34:37;;;;;;;14.05;11.18;;;11.10;99.90;;;;;;4996602;28;20041;-86
2023/12/05 08:37:05;;;;;;;16.83;11.77;;;11.40;99.90;;;;;;4996827;28;20484;-86
2023/12/05 08:39:31;;;;;;;14.07;11.57;;;11.60;99.90;;;;;;4996677;28;20435;-87
2023/12/05 08:41:59;;;;;;;18.42;12.02;;;11.80;99.90;;;;;;4996938;28;20030;-86
2023/12/05 08:44:26;;;;;;;13.45;12.00;;;12.00;99.90;;;;;;4996558;28;20036;-86
2023/12/05 08:46:52;;;;;;;13.23;11.93;;;12.10;99.90;;;;;;4996604;28;20022;-87
2023/12/05 08:49:19;;;;;;;16.73;12.52;;;12.20;99.90;;;;;;4996534;28;20034;-87
2023/12/05 08:51:46;;;;;;;13.40;12.23;;;12.20;99.90;;;;;;4996111;28;20026;-84
2023/12/05 08:54:12;;;;;;;15.80;12.50;;;12.20;99.90;;;;;;5012508;28;20049;-86
2023/12/05 08:56:38;;;;;;;12.88;11.63;;;12.30;99.90;;;;;;4996607;28;20022;-86
2023/12/05 08:59:05;;;;;;;13.30;12.10;;;12.40;99.90;;;;;;4996368;28;20046;-86
2023/12/05 09:01:31;;;;;;;16.35;12.13;;;12.50;99.90;;;;;;4996129;28;20501;-85
2023/12/05 09:03:57;;;;;;;14.77;12.52;;;12.70;99.90;;;;;;4996175;28;20022;-85
2023/12/05 09:06:24;;;;;;;15.40;11.68;;;12.80;99.90;;;;;;4995919;28;20033;-85
2023/12/05 09:08:50;;;;;;;17.08;12.10;;;12.90;99.90;;;;;;4995698;28;20026;-86
2023/12/05 09:11:17;;;;;;;13.85;12.80;;;13.10;99.90;;;;;;4996398;28;20403;-89
2023/12/05 09:13:43;;;;;;;14.35;13.23;;;13.20;99.90;;;;;;4995969;28;20034;-89
2023/12/05 09:16:10;;;;;;;14.85;13.75;;;13.40;99.90;;;;;;4992300;28;20468;-84
2023/12/05 09:18:37;;;;;;;15.68;14.40;;;13.70;99.90;;;;;;4960002;28;20035;-83
2023/12/05 09:21:04;;;;;;;16.40;14.80;;;13.90;99.90;;;;;;4960114;28;20023;-84
2023/12/05 09:23:31;;;;;;;16.10;14.68;;;14.00;99.90;;;;;;4975812;28;20058;-83
2023/12/05 09:25:57;;;;;;;16.85;15.60;;;14.10;99.90;;;;;;4978954;28;20030;-84
2023/12/05 09:28:24;;;;;;;18.17;15.85;;;14.10;99.90;;;;;;4982136;28;20395;-83
2023/12/05 09:30:50;;;;;;;17.20;15.60;;;14.10;99.90;;;;;;4998849;28;20026;-83
2023/12/05 09:33:17;;;;;;;17.25;15.60;;;14.30;99.90;;;;;;4982294;28;20038;-84
2023/12/05 09:35:44;;;;;;;17.13;15.70;;;14.40;99.90;;;;;;4982107;28;20022;-84
2023/12/05 09:38:11;;;;;;;19.55;15.55;;;14.50;99.90;;;;;;5014857;28;20466;-84
2023/12/05 09:40:37;;;;;;;17.40;16.15;;;14.60;99.90;;;;;;4998744;28;20072;-84
2023/12/05 09:43:06;;;;;;;17.52;16.13;;;14.60;99.90;;;;;;4982411;28;20483;-84
2023/12/05 09:45:42;;;;;;;17.83;16.27;;;14.60;99.90;;;;;;4998402;28;20113;-83
2023/12/05 09:48:11;;;;;;;17.65;16.33;;;14.50;99.90;;;;;;4998384;28;20030;-84
2023/12/05 09:50:38;;;;;;;17.80;16.25;;;14.60;99.90;;;;;;4998575;28;20041;-84
2023/12/05 09:53:09;;;;;;;18.58;17.15;;;14.70;99.90;;;;;;5014641;28;20046;-84
2023/12/05 09:55:38;;;;;;;18.88;16.92;;;14.60;99.90;;;;;;4996554;28;20030;-84
2023/12/05 09:58:07;;;;;;;17.95;16.63;;;14.60;99.90;;;;;;4994901;28;20081;-85
2023/12/05 10:00:34;;;;;;;17.98;16.48;;;14.60;99.90;;;;;;4978712;28;20038;-81
2023/12/05 10:03:05;;;;;;;18.08;16.80;;;14.50;99.90;;;;;;4994816;28;20487;-83
2023/12/05 10:05:34;;;;;;;18.35;16.58;;;14.50;99.90;;;;;;4978647;28;20030;-81
2023/12/05 10:08:02;;;;;;;17.05;16.02;;;14.50;99.90;;;;;;4978620;28;20031;-80
2023/12/05 10:10:31;;;;;;;18.48;16.60;;;14.40;99.90;;;;;;4978532;28;20073;-83
2023/12/05 10:12:59;;;;;;;18.23;16.70;;;14.40;99.90;;;;;;4978509;28;20407;-84
2023/12/05 10:15:26;;;;;;;18.65;17.20;;;14.40;99.90;;;;;;4980951;28;20492;-82
2023/12/05 10:17:52;;;;;;;17.73;16.20;;;14.40;99.90;;;;;;4998002;28;20033;-83
2023/12/05 10:20:19;;;;;;;18.00;16.60;;;14.50;99.90;;;;;;5014184;28;20026;-83
2023/12/05 10:22:46;;;;;;;18.48;16.92;;;14.60;99.90;;;;;;4997738;28;20018;-83
2023/12/05 10:25:14;;;;;;;18.42;16.92;;;14.70;99.90;;;;;;5006012;28;20029;-87
2023/12/05 10:27:41;;;;;;;18.58;17.10;;;14.80;99.90;;;;;;4987127;28;20025;-83
2023/12/05 10:30:08;;;;;;;19.20;17.70;;;14.80;99.90;;;;;;4997599;28;20042;-82
2023/12/05 10:32:36;;;;;;;19.40;17.48;;;14.70;99.90;;;;;;4997816;28;20038;-83
2023/12/05 10:35:03;;;;;;;17.90;16.75;;;14.60;99.90;;;;;;5003519;28;20029;-82
2023/12/05 10:37:30;;;;;;;19.00;17.40;;;14.50;99.90;;;;;;5009196;28;20080;-83
2023/12/05 10:39:58;;;;;;;18.75;17.23;;;14.40;99.90;;;;;;5014223;28;20036;-81
2023/12/05 10:42:30;;;;;;;17.85;16.52;;;14.30;99.90;;;;;;5001690;28;20033;-81
2023/12/05 10:44:57;;;;;;;17.50;16.10;;;14.20;99.90;;;;;;4993994;28;20076;-81
2023/12/05 10:47:27;;;;;;;18.20;16.60;;;14.10;99.90;;;;;;4989783;28;20480;-81
2023/12/05 10:49:53;;;;;;;18.95;17.20;;;14.10;99.90;;;;;;4977898;28;20560;-83
2023/12/05 10:52:20;;;;;;;18.85;16.67;;;14.20;99.90;;;;;;5012235;28;20030;-81
2023/12/05 10:54:57;;;;;;;19.27;17.25;;;14.30;99.90;;;;;;5004038;28;20033;-82
2023/12/05 10:57:33;;;;;;;18.85;17.05;;;14.40;99.90;;;;;;4993680;28;20142;-81
2023/12/05 11:00:00;;;;;;;18.38;16.77;;;14.60;99.90;;;;;;4988573;28;20041;-80
2023/12/05 11:02:27;;;;;;;19.48;17.65;;;14.50;99.90;;;;;;4993742;28;20424;-80
2023/12/05 11:04:55;;;;;;;19.27;17.63;;;14.60;99.90;;;;;;4996102;28;20425;-81
2023/12/05 11:07:22;;;;;;;18.70;17.00;;;14.70;99.90;;;;;;4988985;28;20491;-80
2023/12/05 11:09:49;;;;;;;19.63;17.75;;;14.80;99.90;;;;;;4996730;28;20468;-81
2023/12/05 11:12:43;;;;;;;19.38;17.70;;;14.80;99.90;;;;;;4980412;28;20067;-81
2023/12/05 11:15:16;;;;;;;19.30;17.80;;;14.90;99.90;;;;;;5006746;28;20025;-79
2023/12/05 11:17:49;;;;;;;19.35;17.85;;;14.80;99.90;;;;;;5013067;28;20091;-82
2023/12/05 11:20:25;;;;;;;20.67;17.60;;;14.90;99.90;;;;;;4996635;28;20047;-80
2023/12/05 11:23:05;;;;;;;18.35;16.95;;;14.70;99.90;;;;;;4996964;28;20072;-87
2023/12/05 11:25:47;;;;;;;17.33;15.90;;;14.60;99.90;;;;;;4980052;28;20040;-88
2023/12/05 11:28:41;;;;;;;16.52;14.90;;;14.50;99.90;;;;;;4977957;28;20548;-85
2023/12/05 11:31:22;;;;;;;16.70;13.95;;;14.30;99.90;;;;;;4986920;28;20069;-82
2023/12/05 11:34:16;;;;;;;15.57;14.23;;;14.30;99.90;;;;;;4981234;28;20048;-84
2023/12/05 11:37:04;;;;;;;15.90;14.02;;;14.30;99.90;;;;;;4980519;28;20037;-83
2023/12/05 11:39:33;;;;;;;15.93;13.82;;;14.20;99.90;;;;;;4979374;28;20099;-85
2023/12/05 11:42:09;;;;;;;14.20;13.07;;;14.10;99.90;;;;;;4968303;28;20049;-87
2023/12/05 11:44:38;;;;;;;16.13;12.95;;;14.00;99.90;;;;;;4975904;28;20041;-85
2023/12/05 11:47:33;;;;;;;14.40;13.30;;;14.00;99.90;;;;;;4984096;28;20026;-87
2023/12/05 11:50:04;;;;;;;14.52;13.27;;;14.20;99.90;;;;;;4996909;28;20038;-85
2023/12/05 11:52:39;;;;;;;16.05;13.25;;;14.30;99.90;;;;;;4963835;28;20038;-89
2023/12/05 11:55:08;;;;;;;14.77;13.38;;;14.30;99.90;;;;;;4961363;28;20027;-87
2023/12/05 11:57:35;;;;;;;18.85;13.10;;;14.20;99.90;;;;;;4982742;28;20060;-85
2023/12/05 12:00:03;;;;;;;14.27;12.65;;;14.20;99.90;;;;;;4999763;28;20465;-86
2023/12/05 12:02:44;;;;;;;17.10;12.85;;;14.30;99.90;;;;;;5033882;28;20029;-87
2023/12/05 12:05:12;;;;;;;13.18;12.13;;;14.20;99.90;;;;;;5016358;28;20117;-85
2023/12/05 12:07:58;;;;;;;17.65;12.43;;;14.10;99.90;;;;;;4996722;28;20054;-86
2023/12/05 12:10:28;;;;;;;19.23;12.93;;;14.00;99.90;;;;;;4996797;28;20333;-84
2023/12/05 12:12:56;;;;;;;13.20;11.98;;;14.00;99.90;;;;;;4996317;28;20089;-84
2023/12/05 12:15:23;;;;;;;13.07;12.07;;;13.90;99.90;;;;;;4999187;28;20033;-85
2023/12/05 12:17:49;;;;;;;13.30;11.98;;;13.90;99.90;;;;;;4999742;28;20450;-85
2023/12/05 12:20:17;;;;;;;13.35;12.10;;;13.90;99.90;;;;;;4999633;28;20482;-86
2023/12/05 12:22:49;;;;;;;13.68;12.32;;;14.00;99.90;;;;;;4999674;28;20052;-85
2023/12/05 12:25:16;;;;;;;15.13;13.10;;;13.90;99.90;;;;;;4999874;28;20071;-85
2023/12/05 12:27:50;;;;;;;18.30;14.00;;;13.80;99.90;;;;;;4996264;28;20426;-85
2023/12/05 12:30:17;;;;;;;15.88;13.35;;;13.90;99.90;;;;;;4980455;28;20030;-85
2023/12/05 12:33:09;;;;;;;18.63;13.15;;;14.10;99.90;;;;;;4980143;28;20034;-86
2023/12/05 12:35:37;;;;;;;14.07;12.95;;;14.20;99.90;;;;;;4980182;28;20093;-85
2023/12/05 12:38:05;;;;;;;14.70;12.95;;;14.30;99.90;;;;;;4996001;28;20018;-87